Terminal Aerodrome Forecast
Issued by NWS Albany, NY

Current Version | Previous Version | Text Only | Print | Product List | Glossary On
Versions: 1 2 3 4 5 6 7 8 9 10 11 12 13 14 15 16 17
000
FTUS41 KALY 010537
TAFALB
TAF
KALB 010537Z 0106/0206 00000KT P6SM BKN150
     FM011500 16005KT P6SM VCSH OVC080
     FM011800 17009KT 5SM -SN BR BKN025 OVC040
     FM012000 17007KT 2SM -SN BR BKN015 OVC030=

USA.gov is the U.S. government's official web portal to all federal, state and local government web resources and services.